Time;durP1;ratioP1;P1;durP2;ratioP2;P2;SDS_P1;SDS_P2;PMS_P1;PMS_P2;Temp;Humidity;BMP_temperature;BMP_pressure;BME280_temperature;BME280_humidity;BME280_pressure;Samples;Min_cycle;Max_cycle;Signal;HPM_P1;HPM_P2
2023/01/07 00:00:19;;;;;;;2.83;0.55;;;;;;;;;;5047356;28;20805;-68
2023/01/07 00:02:46;;;;;;;6.85;1.30;;;;;;;;;;5047389;28;20055;-67
2023/01/07 00:05:12;;;;;;;5.63;1.40;;;;;;;;;;5048603;28;20150;-67
2023/01/07 00:07:39;;;;;;;4.82;1.23;;;;;;;;;;5062794;28;20045;-67
2023/01/07 00:10:06;;;;;;;3.92;0.93;;;;;;;;;;5047649;28;20118;-67
2023/01/07 00:12:32;;;;;;;1.90;0.57;;;;;;;;;;5046744;28;20049;-67
2023/01/07 00:14:59;;;;;;;2.25;0.40;;;;;;;;;;5047666;28;20117;-67
2023/01/07 00:17:26;;;;;;;0.77;0.40;;;;;;;;;;5044216;28;20053;-67
2023/01/07 00:19:52;;;;;;;1.20;0.50;;;;;;;;;;5046712;28;20102;-67
2023/01/07 00:22:19;;;;;;;2.30;0.60;;;;;;;;;;5046122;28;20115;-67
2023/01/07 00:24:46;;;;;;;1.60;0.57;;;;;;;;;;5047869;28;20045;-68
2023/01/07 00:27:13;;;;;;;0.98;0.40;;;;;;;;;;5047340;28;20618;-67
2023/01/07 00:29:39;;;;;;;1.40;0.50;;;;;;;;;;5048126;28;20099;-67
2023/01/07 00:32:06;;;;;;;1.88;0.60;;;;;;;;;;5047980;28;20033;-67
2023/01/07 00:34:33;;;;;;;10.23;0.90;;;;;;;;;;5046131;28;20413;-67
2023/01/07 00:39:47;;;;;;;3.50;0.63;;;;;;;;;;5048760;28;20067;-68
2023/01/07 00:45:16;;;;;;;1.02;0.40;;;;;;;;;;5061682;28;20079;-67
2023/01/07 00:47:42;;;;;;;1.23;0.50;;;;;;;;;;5046896;28;20076;-67
2023/01/07 00:50:09;;;;;;;1.55;0.50;;;;;;;;;;5030433;28;20092;-67
2023/01/07 00:52:36;;;;;;;1.35;0.50;;;;;;;;;;5024526;28;20153;-67
2023/01/07 00:55:02;;;;;;;1.75;0.50;;;;;;;;;;5028910;28;20227;-67
2023/01/07 00:57:29;;;;;;;1.63;0.60;;;;;;;;;;5026636;28;20456;-67
2023/01/07 00:59:55;;;;;;;1.65;0.60;;;;;;;;;;5028807;28;20159;-68
2023/01/07 01:02:22;;;;;;;2.03;0.60;;;;;;;;;;5027393;28;20121;-68
2023/01/07 01:04:49;;;;;;;2.13;0.63;;;;;;;;;;5021785;28;20040;-68
2023/01/07 01:07:15;;;;;;;4.25;0.88;;;;;;;;;;5029734;28;20185;-68
2023/01/07 01:09:42;;;;;;;5.45;1.08;;;;;;;;;;5032582;28;20069;-66
2023/01/07 01:12:08;;;;;;;1.42;0.40;;;;;;;;;;5034646;28;20052;-67
2023/01/07 01:14:35;;;;;;;2.63;0.80;;;;;;;;;;5032710;28;20053;-69
2023/01/07 01:17:02;;;;;;;4.18;0.77;;;;;;;;;;5029767;28;20279;-67
2023/01/07 01:19:28;;;;;;;2.00;0.60;;;;;;;;;;5027145;28;20456;-66
2023/01/07 01:21:56;;;;;;;0.88;0.40;;;;;;;;;;5027432;28;20575;-67
2023/01/07 01:24:22;;;;;;;2.15;0.60;;;;;;;;;;5027093;28;20569;-67
2023/01/07 01:26:49;;;;;;;2.88;0.98;;;;;;;;;;5026800;28;20051;-66
2023/01/07 01:29:16;;;;;;;2.92;0.80;;;;;;;;;;5027233;28;20041;-66
2023/01/07 01:31:42;;;;;;;3.35;0.80;;;;;;;;;;5027577;28;20409;-67
2023/01/07 01:34:09;;;;;;;2.20;0.73;;;;;;;;;;5029089;28;20048;-65
2023/01/07 01:36:37;;;;;;;2.75;0.73;;;;;;;;;;5027771;28;20088;-68
2023/01/07 01:39:04;;;;;;;4.10;0.90;;;;;;;;;;5027154;28;20037;-67
2023/01/07 01:41:30;;;;;;;1.75;0.70;;;;;;;;;;5026024;28;20037;-66
2023/01/07 01:43:57;;;;;;;3.53;0.80;;;;;;;;;;5026864;28;20041;-67
2023/01/07 01:46:37;;;;;;;4.50;0.57;;;;;;;;;;5012902;28;20034;-66
2023/01/07 01:49:39;;;;;;;4.60;0.70;;;;;;;;;;5041772;28;20507;-67
2023/01/07 01:52:13;;;;;;;2.42;0.60;;;;;;;;;;5040432;28;20037;-67
2023/01/07 01:54:41;;;;;;;3.10;0.80;;;;;;;;;;5040614;28;20041;-66
2023/01/07 01:57:08;;;;;;;2.90;0.90;;;;;;;;;;5027023;28;20038;-67
2023/01/07 01:59:37;;;;;;;3.53;0.90;;;;;;;;;;5025789;28;20047;-67
2023/01/07 02:02:05;;;;;;;4.53;0.82;;;;;;;;;;5027813;28;20135;-67
2023/01/07 02:04:33;;;;;;;4.47;1.05;;;;;;;;;;5042414;28;20047;-67
2023/01/07 02:07:04;;;;;;;5.43;0.90;;;;;;;;;;5027869;28;20051;-67
2023/01/07 02:09:30;;;;;;;2.30;0.80;;;;;;;;;;5028823;28;20044;-67
2023/01/07 02:12:12;;;;;;;1.58;0.50;;;;;;;;;;5029734;28;20446;-67
2023/01/07 02:14:38;;;;;;;3.00;0.70;;;;;;;;;;5043727;28;20095;-67
2023/01/07 02:17:14;;;;;;;2.65;0.70;;;;;;;;;;5026407;28;20051;-67
2023/01/07 02:19:43;;;;;;;5.07;0.70;;;;;;;;;;5025503;28;20038;-66
2023/01/07 02:22:19;;;;;;;2.38;0.70;;;;;;;;;;5026216;28;20043;-68
2023/01/07 02:24:51;;;;;;;2.28;0.60;;;;;;;;;;5025813;28;20037;-66
2023/01/07 02:27:26;;;;;;;2.03;0.60;;;;;;;;;;5028109;28;20159;-67
2023/01/07 02:30:02;;;;;;;1.92;0.55;;;;;;;;;;5020880;28;20048;-66
2023/01/07 02:32:47;;;;;;;2.47;0.60;;;;;;;;;;5046156;28;20037;-67
2023/01/07 02:35:25;;;;;;;2.05;0.70;;;;;;;;;;5053689;28;20133;-66
2023/01/07 02:37:58;;;;;;;1.70;0.50;;;;;;;;;;5075281;28;20043;-67
2023/01/07 02:40:25;;;;;;;6.30;0.70;;;;;;;;;;5035996;28;20087;-68
2023/01/07 02:43:07;;;;;;;1.42;0.50;;;;;;;;;;5024802;28;20038;-67
2023/01/07 02:45:39;;;;;;;1.63;0.60;;;;;;;;;;5025916;28;20049;-67
2023/01/07 02:48:07;;;;;;;3.00;0.85;;;;;;;;;;5027264;28;20049;-68
2023/01/07 02:50:34;;;;;;;3.03;0.95;;;;;;;;;;5025623;28;20075;-67
2023/01/07 02:53:00;;;;;;;2.63;0.80;;;;;;;;;;5032164;28;20163;-69
2023/01/07 02:55:27;;;;;;;3.03;0.80;;;;;;;;;;5032993;28;20495;-67
2023/01/07 02:57:54;;;;;;;2.45;0.70;;;;;;;;;;5025490;28;20057;-67
2023/01/07 03:00:23;;;;;;;1.88;0.55;;;;;;;;;;5023914;28;20052;-66
2023/01/07 03:03:09;;;;;;;3.97;0.80;;;;;;;;;;5038276;28;20068;-67
2023/01/07 03:05:40;;;;;;;2.03;0.55;;;;;;;;;;5025184;28;20041;-67
2023/01/07 03:08:25;;;;;;;2.13;0.70;;;;;;;;;;5019910;28;20036;-67
2023/01/07 03:10:58;;;;;;;2.15;0.55;;;;;;;;;;5030812;28;20041;-68
2023/01/07 03:13:32;;;;;;;2.85;0.68;;;;;;;;;;5024054;28;20489;-69
2023/01/07 03:16:05;;;;;;;2.83;0.95;;;;;;;;;;5010958;28;20121;-68
2023/01/07 03:18:34;;;;;;;3.22;0.95;;;;;;;;;;5032496;28;20033;-66
2023/01/07 03:21:03;;;;;;;2.35;0.70;;;;;;;;;;5044871;28;20041;-67
2023/01/07 03:23:30;;;;;;;2.30;0.73;;;;;;;;;;5046264;28;20095;-68
2023/01/07 03:25:59;;;;;;;3.67;0.60;;;;;;;;;;5046386;28;20053;-66
2023/01/07 03:28:28;;;;;;;2.13;0.68;;;;;;;;;;5043970;28;20287;-67
2023/01/07 03:30:56;;;;;;;2.97;0.70;;;;;;;;;;5044610;28;20041;-68
2023/01/07 03:33:43;;;;;;;1.67;0.52;;;;;;;;;;5043346;28;20033;-68
2023/01/07 03:36:11;;;;;;;3.00;0.60;;;;;;;;;;5045024;28;20041;-67
2023/01/07 03:38:39;;;;;;;2.17;0.60;;;;;;;;;;5043100;28;20037;-67
2023/01/07 03:41:06;;;;;;;1.80;0.52;;;;;;;;;;5029839;28;20033;-68
2023/01/07 03:43:33;;;;;;;1.20;0.50;;;;;;;;;;5044247;28;20076;-67
2023/01/07 03:46:00;;;;;;;2.20;0.60;;;;;;;;;;5045871;28;20390;-68
2023/01/07 03:48:26;;;;;;;1.67;0.50;;;;;;;;;;5041871;28;20075;-66
2023/01/07 03:50:53;;;;;;;2.25;0.50;;;;;;;;;;5043649;28;20501;-68
2023/01/07 03:53:20;;;;;;;1.70;0.52;;;;;;;;;;5044113;28;20127;-69
2023/01/07 03:55:46;;;;;;;2.72;0.70;;;;;;;;;;5043176;28;20510;-68
2023/01/07 03:58:13;;;;;;;1.48;0.50;;;;;;;;;;5028761;28;20068;-68
2023/01/07 04:00:39;;;;;;;3.35;0.65;;;;;;;;;;5044655;28;20148;-67
2023/01/07 04:03:06;;;;;;;2.10;0.60;;;;;;;;;;5048538;28;20045;-68
2023/01/07 04:05:33;;;;;;;1.55;0.50;;;;;;;;;;5047148;28;20033;-68
2023/01/07 04:08:00;;;;;;;2.33;0.50;;;;;;;;;;5043618;28;20480;-68
2023/01/07 04:10:26;;;;;;;1.83;0.60;;;;;;;;;;5046529;28;20056;-69
2023/01/07 04:12:53;;;;;;;1.92;0.70;;;;;;;;;;5030579;28;20210;-68
2023/01/07 04:15:19;;;;;;;2.58;0.70;;;;;;;;;;5058856;28;20052;-69
2023/01/07 04:17:46;;;;;;;2.80;0.93;;;;;;;;;;5039811;28;20048;-68
2023/01/07 04:20:13;;;;;;;2.22;0.90;;;;;;;;;;5049707;28;20533;-68
2023/01/07 04:22:39;;;;;;;3.65;0.70;;;;;;;;;;5048095;28;21561;-67
2023/01/07 04:25:06;;;;;;;2.38;0.70;;;;;;;;;;5048088;28;20097;-68
2023/01/07 04:27:33;;;;;;;2.70;0.70;;;;;;;;;;5047522;28;20044;-68
2023/01/07 04:30:00;;;;;;;2.95;0.70;;;;;;;;;;5048048;28;20042;-68
2023/01/07 04:32:27;;;;;;;3.00;0.82;;;;;;;;;;5046914;28;20204;-68
2023/01/07 04:34:53;;;;;;;3.95;0.75;;;;;;;;;;5048149;28;20036;-67
2023/01/07 04:37:20;;;;;;;3.95;0.73;;;;;;;;;;5044513;28;20110;-68
2023/01/07 04:39:47;;;;;;;1.58;0.50;;;;;;;;;;5048062;28;20045;-68
2023/01/07 04:42:13;;;;;;;2.63;0.75;;;;;;;;;;5047019;28;20512;-67
2023/01/07 04:44:40;;;;;;;3.00;0.70;;;;;;;;;;5046637;28;20067;-67
2023/01/07 04:47:06;;;;;;;3.63;0.82;;;;;;;;;;5057113;28;22189;-68
2023/01/07 04:49:33;;;;;;;2.55;0.60;;;;;;;;;;5037250;28;20051;-67
2023/01/07 04:52:00;;;;;;;3.25;1.23;;;;;;;;;;5047860;28;20134;-67
2023/01/07 04:54:26;;;;;;;4.93;1.30;;;;;;;;;;5047973;28;20068;-69
2023/01/07 04:56:53;;;;;;;3.45;0.95;;;;;;;;;;5050049;28;20388;-67
2023/01/07 04:59:19;;;;;;;2.65;0.80;;;;;;;;;;5044188;28;20770;-69
2023/01/07 05:01:46;;;;;;;3.58;0.70;;;;;;;;;;5049046;28;20381;-70
2023/01/07 05:04:13;;;;;;;2.65;0.70;;;;;;;;;;5047637;28;21415;-66
2023/01/07 05:06:39;;;;;;;4.03;0.77;;;;;;;;;;5046554;28;20044;-66
2023/01/07 05:09:06;;;;;;;2.15;0.70;;;;;;;;;;5047335;28;20037;-66
2023/01/07 05:11:33;;;;;;;3.45;0.93;;;;;;;;;;5046448;28;20047;-67
2023/01/07 05:14:00;;;;;;;6.43;0.73;;;;;;;;;;5041047;28;21916;-70
2023/01/07 05:16:27;;;;;;;2.25;0.70;;;;;;;;;;5034544;28;20447;-68
2023/01/07 05:18:53;;;;;;;3.20;0.73;;;;;;;;;;5029340;28;20409;-67
2023/01/07 05:21:20;;;;;;;3.20;0.82;;;;;;;;;;5030444;28;21302;-68
2023/01/07 05:23:47;;;;;;;3.75;0.80;;;;;;;;;;5031927;28;20040;-66
2023/01/07 05:26:13;;;;;;;2.35;0.65;;;;;;;;;;5033470;28;20427;-66
2023/01/07 05:28:40;;;;;;;5.20;0.90;;;;;;;;;;5030447;28;20565;-67
2023/01/07 05:31:06;;;;;;;8.85;1.33;;;;;;;;;;5026627;28;20498;-68
2023/01/07 05:33:33;;;;;;;1.98;0.70;;;;;;;;;;5026801;28;20077;-68
2023/01/07 05:36:00;;;;;;;4.75;0.85;;;;;;;;;;5027879;28;20041;-67
2023/01/07 05:38:26;;;;;;;4.05;1.20;;;;;;;;;;5025979;28;20040;-68
2023/01/07 05:40:53;;;;;;;3.40;0.90;;;;;;;;;;5028581;28;20037;-68
2023/01/07 05:43:20;;;;;;;3.53;1.13;;;;;;;;;;5025911;28;20025;-67
2023/01/07 05:45:46;;;;;;;2.17;0.82;;;;;;;;;;5027883;28;20045;-67
2023/01/07 05:48:13;;;;;;;3.22;0.90;;;;;;;;;;5027307;28;20362;-67
2023/01/07 05:50:40;;;;;;;2.90;0.90;;;;;;;;;;5027239;28;20172;-68
2023/01/07 05:53:06;;;;;;;2.60;0.82;;;;;;;;;;5028314;28;20132;-68
2023/01/07 05:55:33;;;;;;;5.80;0.93;;;;;;;;;;5025126;28;20041;-68
2023/01/07 05:58:00;;;;;;;3.22;0.88;;;;;;;;;;5028773;28;20151;-68
2023/01/07 06:00:26;;;;;;;3.38;0.82;;;;;;;;;;5026165;28;20037;-68
2023/01/07 06:02:53;;;;;;;2.00;0.60;;;;;;;;;;5025567;28;20045;-67
2023/01/07 06:05:21;;;;;;;3.45;0.90;;;;;;;;;;5026415;28;20060;-68
2023/01/07 06:07:48;;;;;;;3.85;0.90;;;;;;;;;;5029445;28;20155;-68
2023/01/07 06:10:14;;;;;;;4.60;1.10;;;;;;;;;;5026545;28;20029;-67
2023/01/07 06:12:41;;;;;;;3.50;0.93;;;;;;;;;;5024510;28;20041;-66
2023/01/07 06:15:08;;;;;;;3.33;0.77;;;;;;;;;;5025770;28;20115;-68
2023/01/07 06:17:34;;;;;;;3.53;1.10;;;;;;;;;;5024692;28;21048;-66
2023/01/07 06:20:01;;;;;;;3.95;1.10;;;;;;;;;;5025284;28;20040;-67
2023/01/07 06:22:28;;;;;;;4.55;1.00;;;;;;;;;;5024168;28;20124;-66
2023/01/07 06:24:54;;;;;;;5.50;1.00;;;;;;;;;;5025684;28;20057;-68
2023/01/07 06:27:21;;;;;;;4.38;1.13;;;;;;;;;;5025781;28;20045;-69
2023/01/07 06:29:48;;;;;;;5.35;1.00;;;;;;;;;;5025179;28;20065;-67
2023/01/07 06:32:14;;;;;;;4.60;0.80;;;;;;;;;;5024398;28;20588;-67
2023/01/07 06:34:41;;;;;;;4.28;0.77;;;;;;;;;;5024267;28;20069;-67
2023/01/07 06:37:07;;;;;;;1.92;0.60;;;;;;;;;;5024657;28;20045;-66
2023/01/07 06:39:34;;;;;;;1.95;0.65;;;;;;;;;;5026164;28;20048;-67
2023/01/07 06:42:01;;;;;;;2.22;0.80;;;;;;;;;;5026069;28;20060;-68
2023/01/07 06:44:27;;;;;;;5.00;0.80;;;;;;;;;;5026860;28;20677;-67
2023/01/07 06:46:54;;;;;;;1.77;0.55;;;;;;;;;;5025901;28;20103;-66
2023/01/07 06:49:21;;;;;;;3.33;1.10;;;;;;;;;;5026098;28;20051;-66
2023/01/07 06:51:47;;;;;;;4.18;1.33;;;;;;;;;;5026622;28;20171;-66
2023/01/07 06:54:14;;;;;;;3.00;1.10;;;;;;;;;;5027454;28;20037;-67
2023/01/07 06:56:40;;;;;;;4.07;1.10;;;;;;;;;;5025420;28;20071;-66
2023/01/07 06:59:07;;;;;;;4.50;1.35;;;;;;;;;;5027243;28;20229;-67
2023/01/07 07:01:34;;;;;;;9.32;1.10;;;;;;;;;;5025720;28;20052;-67
2023/01/07 07:04:00;;;;;;;3.85;0.80;;;;;;;;;;5026220;28;20041;-66
2023/01/07 07:06:27;;;;;;;2.50;0.80;;;;;;;;;;5024788;28;20483;-68
2023/01/07 07:08:53;;;;;;;6.35;1.23;;;;;;;;;;5025663;28;20056;-67
2023/01/07 07:11:20;;;;;;;5.53;1.05;;;;;;;;;;5024056;28;20041;-67
2023/01/07 07:13:48;;;;;;;3.05;1.00;;;;;;;;;;5026494;28;20160;-67
2023/01/07 07:16:14;;;;;;;3.13;1.10;;;;;;;;;;5024590;28;20033;-67
2023/01/07 07:18:41;;;;;;;2.70;0.80;;;;;;;;;;5025015;28;20221;-68
2023/01/07 07:21:08;;;;;;;2.42;0.90;;;;;;;;;;5025468;28;20461;-66
2023/01/07 07:23:34;;;;;;;5.63;1.05;;;;;;;;;;5024670;28;20038;-66
2023/01/07 07:26:01;;;;;;;2.80;0.90;;;;;;;;;;5023838;28;20033;-67
2023/01/07 07:28:28;;;;;;;6.43;1.30;;;;;;;;;;5023604;28;20107;-67
2023/01/07 07:30:54;;;;;;;4.22;0.90;;;;;;;;;;5025703;28;20037;-67
2023/01/07 07:33:21;;;;;;;3.58;1.00;;;;;;;;;;5026524;28;20037;-67
2023/01/07 07:35:48;;;;;;;4.35;1.20;;;;;;;;;;5025361;28;20037;-67
2023/01/07 07:38:16;;;;;;;8.07;1.48;;;;;;;;;;5028150;28;20036;-68
2023/01/07 07:40:43;;;;;;;5.63;1.42;;;;;;;;;;5028281;28;20045;-69
2023/01/07 07:43:11;;;;;;;3.25;0.95;;;;;;;;;;5047259;28;20146;-68
2023/01/07 07:45:37;;;;;;;4.28;1.30;;;;;;;;;;5033769;28;20057;-67
2023/01/07 07:48:07;;;;;;;6.93;1.20;;;;;;;;;;5029281;28;20048;-68
2023/01/07 07:50:35;;;;;;;4.78;1.30;;;;;;;;;;5031114;28;20059;-67
2023/01/07 07:53:01;;;;;;;10.10;1.95;;;;;;;;;;5029560;28;20049;-68
2023/01/07 07:55:28;;;;;;;4.25;1.23;;;;;;;;;;5028111;28;20048;-68
2023/01/07 07:57:58;;;;;;;4.35;1.20;;;;;;;;;;5025976;28;20051;-68
2023/01/07 08:00:25;;;;;;;4.22;1.08;;;;;;;;;;5050943;28;20037;-68
2023/01/07 08:02:52;;;;;;;5.65;1.38;;;;;;;;;;5046139;28;20039;-67
2023/01/07 08:05:19;;;;;;;3.38;1.10;;;;;;;;;;5032070;28;20049;-68
2023/01/07 08:07:45;;;;;;;4.18;1.17;;;;;;;;;;5028920;28;20168;-68
2023/01/07 08:10:12;;;;;;;4.30;1.15;;;;;;;;;;5027638;28;20489;-68
2023/01/07 08:12:39;;;;;;;5.47;1.30;;;;;;;;;;5024861;28;20131;-67
2023/01/07 08:15:06;;;;;;;9.38;1.23;;;;;;;;;;5028360;28;20179;-67
2023/01/07 08:17:35;;;;;;;4.18;1.00;;;;;;;;;;5025686;28;20049;-68
2023/01/07 08:20:02;;;;;;;4.13;1.15;;;;;;;;;;5028710;28;20128;-68
2023/01/07 08:22:29;;;;;;;5.53;1.00;;;;;;;;;;5026633;28;20057;-67
2023/01/07 08:24:55;;;;;;;6.18;1.30;;;;;;;;;;5029131;28;20220;-67
2023/01/07 08:27:22;;;;;;;8.45;1.02;;;;;;;;;;5026953;28;20048;-67
2023/01/07 08:29:49;;;;;;;4.50;1.05;;;;;;;;;;5028214;28;20042;-67
2023/01/07 08:32:15;;;;;;;3.03;1.00;;;;;;;;;;5027226;28;20069;-67
2023/01/07 08:34:42;;;;;;;4.65;1.05;;;;;;;;;;5028442;28;20041;-67
2023/01/07 08:37:09;;;;;;;3.88;0.90;;;;;;;;;;5027969;28;20049;-67
2023/01/07 08:39:36;;;;;;;6.35;1.15;;;;;;;;;;5027192;28;20128;-67
2023/01/07 08:42:03;;;;;;;3.33;1.05;;;;;;;;;;5028121;28;20498;-68
2023/01/07 08:44:29;;;;;;;3.65;1.10;;;;;;;;;;5025563;28;20589;-69
2023/01/07 08:46:56;;;;;;;1.65;0.60;;;;;;;;;;5026595;28;20043;-69
2023/01/07 08:49:25;;;;;;;2.00;0.70;;;;;;;;;;5027136;28;20053;-67
2023/01/07 08:51:51;;;;;;;2.53;0.82;;;;;;;;;;5029875;28;20045;-68
2023/01/07 08:54:18;;;;;;;2.42;0.80;;;;;;;;;;5025432;28;20029;-69
2023/01/07 08:56:45;;;;;;;7.47;1.30;;;;;;;;;;5026092;28;20040;-68
2023/01/07 08:59:11;;;;;;;2.75;0.85;;;;;;;;;;5028305;28;20053;-68
2023/01/07 09:01:38;;;;;;;3.72;1.50;;;;;;;;;;5026582;28;22608;-70
2023/01/07 09:04:05;;;;;;;4.40;1.40;;;;;;;;;;5026260;28;20107;-69
2023/01/07 09:06:31;;;;;;;3.33;1.40;;;;;;;;;;5026486;28;20156;-69
2023/01/07 09:08:58;;;;;;;5.95;2.47;;;;;;;;;;5026631;28;20658;-68
2023/01/07 09:11:24;;;;;;;6.20;2.13;;;;;;;;;;5025628;28;20025;-68
2023/01/07 09:13:51;;;;;;;52.45;27.33;;;;;;;;;;5027526;28;20117;-68
2023/01/07 09:16:18;;;;;;;54.95;29.55;;;;;;;;;;5023171;28;20033;-69
2023/01/07 09:18:45;;;;;;;8.27;4.50;;;;;;;;;;5026218;28;20025;-68
2023/01/07 09:21:11;;;;;;;13.55;6.68;;;;;;;;;;5027415;28;20083;-66
2023/01/07 09:23:58;;;;;;;9.98;4.47;;;;;;;;;;5032443;28;20040;-68
2023/01/07 09:26:24;;;;;;;4.20;1.40;;;;;;;;;;5026485;28;20029;-68
2023/01/07 09:28:51;;;;;;;2.20;0.60;;;;;;;;;;5030724;28;20037;-68
2023/01/07 09:31:18;;;;;;;2.03;0.50;;;;;;;;;;5032737;28;20038;-68
2023/01/07 09:34:04;;;;;;;9.65;3.90;;;;;;;;;;5027883;28;20063;-68
2023/01/07 09:36:32;;;;;;;6.53;2.17;;;;;;;;;;5024544;28;20037;-67
2023/01/07 09:38:59;;;;;;;10.27;3.42;;;;;;;;;;5027497;28;20099;-68
2023/01/07 09:41:32;;;;;;;7.93;3.17;;;;;;;;;;5026274;28;20040;-68
2023/01/07 09:44:05;;;;;;;5.75;2.45;;;;;;;;;;5026942;28;20044;-70
2023/01/07 09:46:32;;;;;;;4.45;1.70;;;;;;;;;;5025923;28;20141;-69
2023/01/07 09:49:02;;;;;;;5.82;1.70;;;;;;;;;;5001980;28;20048;-68
2023/01/07 09:51:35;;;;;;;6.53;2.58;;;;;;;;;;5024892;28;20036;-69
2023/01/07 09:54:03;;;;;;;3.03;1.00;;;;;;;;;;5015941;28;20115;-69
2023/01/07 09:56:31;;;;;;;5.78;2.20;;;;;;;;;;5014666;28;20550;-70
2023/01/07 09:58:59;;;;;;;3.38;1.20;;;;;;;;;;5026345;28;20132;-69
2023/01/07 10:01:36;;;;;;;6.20;2.05;;;;;;;;;;5024472;28;20152;-69
2023/01/07 10:04:23;;;;;;;1.77;0.60;;;;;;;;;;5024456;28;20399;-69
2023/01/07 10:07:08;;;;;;;5.18;1.73;;;;;;;;;;5024508;28;20053;-67
2023/01/07 10:09:47;;;;;;;4.35;1.30;;;;;;;;;;4992944;28;20080;-68
2023/01/07 10:12:22;;;;;;;1.95;0.60;;;;;;;;;;4988821;28;20042;-66
2023/01/07 10:14:53;;;;;;;0.50;0.30;;;;;;;;;;4979117;28;20046;-67
2023/01/07 10:17:40;;;;;;;1.40;0.55;;;;;;;;;;4971472;28;20138;-68
2023/01/07 10:20:12;;;;;;;3.65;1.33;;;;;;;;;;4991195;28;20041;-67
2023/01/07 10:23:05;;;;;;;1.87;0.60;;;;;;;;;;5005143;28;20045;-67
2023/01/07 10:25:35;;;;;;;2.70;0.80;;;;;;;;;;4982062;28;20054;-68
2023/01/07 10:28:07;;;;;;;5.07;1.23;;;;;;;;;;4976912;28;20136;-68
2023/01/07 10:30:38;;;;;;;2.73;0.70;;;;;;;;;;4986267;28;20034;-67
2023/01/07 10:33:18;;;;;;;1.75;0.43;;;;;;;;;;4994529;28;20062;-68
2023/01/07 10:35:47;;;;;;;2.20;0.60;;;;;;;;;;4978707;28;20137;-67
2023/01/07 10:38:17;;;;;;;0.90;0.40;;;;;;;;;;4987830;28;20034;-67
2023/01/07 10:40:46;;;;;;;1.80;0.60;;;;;;;;;;4970128;28;20575;-68
2023/01/07 10:43:24;;;;;;;0.40;0.38;;;;;;;;;;4987915;28;20047;-68
2023/01/07 10:46:05;;;;;;;0.88;0.40;;;;;;;;;;5017127;28;20049;-68
2023/01/07 10:48:38;;;;;;;1.23;0.40;;;;;;;;;;5025061;28;20535;-68
2023/01/07 10:51:05;;;;;;;1.67;0.50;;;;;;;;;;5026901;28;20036;-69
2023/01/07 10:53:50;;;;;;;1.55;0.40;;;;;;;;;;5024755;28;20518;-69
2023/01/07 10:56:31;;;;;;;1.42;0.50;;;;;;;;;;5024401;28;20493;-69
2023/01/07 10:58:59;;;;;;;1.95;0.50;;;;;;;;;;5025309;28;20041;-68
2023/01/07 11:01:27;;;;;;;1.63;0.50;;;;;;;;;;5025693;28;20056;-68
2023/01/07 11:03:55;;;;;;;1.75;0.60;;;;;;;;;;5024276;28;20037;-68
2023/01/07 11:06:34;;;;;;;1.55;0.50;;;;;;;;;;5025265;28;20041;-67
2023/01/07 11:09:03;;;;;;;1.92;0.50;;;;;;;;;;5011350;28;20100;-70
2023/01/07 11:11:31;;;;;;;1.35;0.47;;;;;;;;;;5031509;28;20047;-67
2023/01/07 11:13:59;;;;;;;1.88;0.50;;;;;;;;;;5025242;28;20397;-68
2023/01/07 11:16:29;;;;;;;1.73;0.50;;;;;;;;;;5022716;28;20522;-68
2023/01/07 11:19:06;;;;;;;1.20;0.50;;;;;;;;;;5025499;28;20041;-69
2023/01/07 11:21:40;;;;;;;2.30;0.70;;;;;;;;;;5025454;28;20072;-70
2023/01/07 11:24:18;;;;;;;1.00;0.40;;;;;;;;;;5026332;28;20025;-67
2023/01/07 11:26:46;;;;;;;3.83;0.80;;;;;;;;;;5024265;28;20433;-69
2023/01/07 11:29:15;;;;;;;1.92;0.50;;;;;;;;;;5024637;28;20578;-68
2023/01/07 11:31:46;;;;;;;1.95;0.60;;;;;;;;;;5025151;28;20056;-69
2023/01/07 11:34:23;;;;;;;2.63;0.60;;;;;;;;;;5025676;28;20053;-67
2023/01/07 11:36:52;;;;;;;1.63;0.50;;;;;;;;;;5025229;28;20133;-67
2023/01/07 11:39:23;;;;;;;1.13;0.45;;;;;;;;;;5018308;28;20068;-67
2023/01/07 11:42:53;;;;;;;1.38;0.50;;;;;;;;;;5038920;28;20037;-67
2023/01/07 11:45:08;;;;;;;2.10;0.70;;;;;;;;;;5035628;28;20041;-67
2023/01/07 11:47:37;;;;;;;2.22;0.70;;;;;;;;;;5040842;28;20036;-67
2023/01/07 11:50:04;;;;;;;2.33;0.75;;;;;;;;;;5043819;28;20051;-67
2023/01/07 11:52:31;;;;;;;1.17;0.50;;;;;;;;;;5043487;28;20094;-67
2023/01/07 11:54:58;;;;;;;0.77;0.38;;;;;;;;;;5043754;28;20041;-68
2023/01/07 11:57:26;;;;;;;2.80;0.70;;;;;;;;;;5043433;28;20191;-68
2023/01/07 12:00:11;;;;;;;2.50;0.80;;;;;;;;;;5044203;28;20040;-67
2023/01/07 12:02:39;;;;;;;2.13;0.70;;;;;;;;;;5042928;28;20485;-67
2023/01/07 12:05:22;;;;;;;3.20;0.60;;;;;;;;;;5058403;28;20037;-67
2023/01/07 12:07:50;;;;;;;1.88;0.55;;;;;;;;;;5039473;28;20080;-67
2023/01/07 12:10:28;;;;;;;1.38;0.45;;;;;;;;;;5040592;28;20037;-68
2023/01/07 12:12:55;;;;;;;2.78;0.57;;;;;;;;;;5052800;28;20383;-67
2023/01/07 12:15:25;;;;;;;2.10;0.70;;;;;;;;;;5021637;28;20730;-68
2023/01/07 12:18:12;;;;;;;2.40;0.65;;;;;;;;;;5034746;28;20042;-67
2023/01/07 12:20:49;;;;;;;1.80;0.60;;;;;;;;;;5021154;28;20051;-67
2023/01/07 12:23:27;;;;;;;0.52;0.38;;;;;;;;;;5023273;28;20465;-67
2023/01/07 12:26:00;;;;;;;1.40;0.30;;;;;;;;;;5039799;28;20040;-67
2023/01/07 12:28:40;;;;;;;4.65;0.50;;;;;;;;;;5046845;28;20117;-66
2023/01/07 12:31:06;;;;;;;0.75;0.40;;;;;;;;;;5048126;28;20056;-67
2023/01/07 12:33:39;;;;;;;0.82;0.40;;;;;;;;;;5046465;28;20045;-68
2023/01/07 12:36:11;;;;;;;1.50;0.43;;;;;;;;;;5048068;28;20071;-68
2023/01/07 12:38:48;;;;;;;0.82;0.30;;;;;;;;;;5047573;28;20481;-68
2023/01/07 12:41:19;;;;;;;1.50;0.50;;;;;;;;;;5048356;28;20041;-67
2023/01/07 12:43:46;;;;;;;1.08;0.40;;;;;;;;;;5046789;28;20060;-68
2023/01/07 12:46:14;;;;;;;1.67;0.43;;;;;;;;;;5047807;28;20049;-69
2023/01/07 12:49:01;;;;;;;0.82;0.40;;;;;;;;;;5046754;28;20090;-69
2023/01/07 12:51:40;;;;;;;3.58;0.47;;;;;;;;;;5047459;28;20033;-68
2023/01/07 12:54:30;;;;;;;1.13;0.40;;;;;;;;;;5048209;28;20553;-68
2023/01/07 12:56:59;;;;;;;1.40;0.40;;;;;;;;;;5015969;28;20087;-68
2023/01/07 12:59:46;;;;;;;2.53;0.43;;;;;;;;;;5060270;28;20417;-71
2023/01/07 13:02:37;;;;;;;1.75;0.40;;;;;;;;;;5046548;28;20142;-71
2023/01/07 13:05:19;;;;;;;0.82;0.40;;;;;;;;;;5043272;28;20037;-70
2023/01/07 13:07:46;;;;;;;1.00;0.40;;;;;;;;;;5041476;28;20052;-69
2023/01/07 13:10:16;;;;;;;1.67;0.40;;;;;;;;;;5046054;28;20060;-69
2023/01/07 13:12:44;;;;;;;3.53;0.50;;;;;;;;;;5047260;28;20087;-69
2023/01/07 13:15:11;;;;;;;1.35;0.47;;;;;;;;;;5064488;28;20043;-70
2023/01/07 13:17:39;;;;;;;1.13;0.40;;;;;;;;;;5047558;28;20485;-69
2023/01/07 13:20:11;;;;;;;1.02;0.43;;;;;;;;;;5047752;28;20406;-70
2023/01/07 13:22:44;;;;;;;3.35;0.60;;;;;;;;;;5046087;28;22250;-68
2023/01/07 13:25:20;;;;;;;3.85;0.63;;;;;;;;;;5059403;28;20737;-70
2023/01/07 13:27:46;;;;;;;2.67;0.68;;;;;;;;;;5039904;28;20049;-69
2023/01/07 13:30:13;;;;;;;2.20;0.60;;;;;;;;;;5049981;28;20045;-71
2023/01/07 13:32:44;;;;;;;1.48;0.60;;;;;;;;;;5047444;28;20059;-70
2023/01/07 13:35:23;;;;;;;1.55;0.47;;;;;;;;;;5045616;28;20787;-69
2023/01/07 13:38:03;;;;;;;0.75;0.35;;;;;;;;;;5033932;28;20048;-72
2023/01/07 13:40:32;;;;;;;1.83;0.60;;;;;;;;;;5026821;28;20418;-69
2023/01/07 13:43:11;;;;;;;1.23;0.43;;;;;;;;;;5027152;28;20465;-71
2023/01/07 13:45:40;;;;;;;1.75;0.60;;;;;;;;;;5025722;28;20071;-71
2023/01/07 13:48:16;;;;;;;2.08;0.60;;;;;;;;;;5026445;28;20037;-70
2023/01/07 13:50:44;;;;;;;1.85;0.52;;;;;;;;;;5024393;28;20063;-69
2023/01/07 13:53:14;;;;;;;2.83;0.88;;;;;;;;;;5029109;28;20151;-71
2023/01/07 13:55:42;;;;;;;3.22;0.80;;;;;;;;;;5025708;28;20510;-70
2023/01/07 13:58:27;;;;;;;2.28;0.80;;;;;;;;;;5028022;28;20045;-70
2023/01/07 14:01:07;;;;;;;3.80;0.95;;;;;;;;;;5025174;28;20716;-70
2023/01/07 14:03:45;;;;;;;3.47;0.70;;;;;;;;;;5025617;28;20052;-70
2023/01/07 14:06:18;;;;;;;2.60;0.90;;;;;;;;;;5040064;28;20879;-70
2023/01/07 14:08:53;;;;;;;4.18;0.80;;;;;;;;;;5040923;28;20049;-69
2023/01/07 14:11:40;;;;;;;6.22;0.93;;;;;;;;;;5023500;28;20057;-70
2023/01/07 14:14:23;;;;;;;2.55;0.85;;;;;;;;;;5030262;28;20469;-70
2023/01/07 14:16:52;;;;;;;2.55;0.70;;;;;;;;;;5040656;28;20091;-70
2023/01/07 14:19:31;;;;;;;2.58;0.70;;;;;;;;;;5026922;28;20725;-69
2023/01/07 14:22:03;;;;;;;2.40;0.65;;;;;;;;;;5024931;28;20041;-68
2023/01/07 14:24:52;;;;;;;2.30;0.90;;;;;;;;;;5025826;28;20163;-69
2023/01/07 14:27:25;;;;;;;7.47;1.35;;;;;;;;;;5023914;28;20344;-70
2023/01/07 14:29:52;;;;;;;7.17;2.10;;;;;;;;;;5030292;28;20509;-68
2023/01/07 14:32:42;;;;;;;9.25;2.40;;;;;;;;;;5022215;28;20077;-71
2023/01/07 14:35:11;;;;;;;10.80;3.55;;;;;;;;;;4991130;28;20041;-71
2023/01/07 14:37:45;;;;;;;6.68;1.90;;;;;;;;;;5023718;28;20041;-69
2023/01/07 14:40:33;;;;;;;8.98;1.58;;;;;;;;;;5020081;28;20160;-69
2023/01/07 14:43:20;;;;;;;3.47;1.23;;;;;;;;;;5022980;28;20041;-69
2023/01/07 14:45:46;;;;;;;2.67;1.08;;;;;;;;;;5021675;28;20052;-69
2023/01/07 14:48:13;;;;;;;3.55;0.98;;;;;;;;;;5022840;28;20094;-70
2023/01/07 14:51:05;;;;;;;2.90;0.80;;;;;;;;;;5021768;28;20052;-69
2023/01/07 14:53:38;;;;;;;7.68;0.85;;;;;;;;;;5003371;28;20045;-68
2023/01/07 14:56:24;;;;;;;1.70;0.60;;;;;;;;;;5021867;28;20037;-68
2023/01/07 14:59:05;;;;;;;1.67;0.70;;;;;;;;;;5022556;28;20052;-68
2023/01/07 15:01:41;;;;;;;3.22;0.75;;;;;;;;;;5001889;28;20061;-69
2023/01/07 15:04:13;;;;;;;2.45;0.82;;;;;;;;;;5005601;28;20045;-68
2023/01/07 15:06:40;;;;;;;4.28;1.30;;;;;;;;;;5033395;28;20107;-68